Weather at Coffin Bay Airport

Public forecast

Using degrees Celsius for public forecast. Weather courtesy of forecast.io.

Closest aviation weather report (METAR) to Coffin Bay Airport

Closest report is Whyalla Airport, 137.3 nm (254.3 km) NE. Retrieved 2021/06/24 16:00 UTC (1 hour ago):

YWHA 241600Z AUTO 27006KT 9999 // SCT071 OVC082 10/08 Q1015

Closest aviation forecast (TAF) to Coffin Bay Airport

Forecast is more than 12 hours old.

Closest forecast is Whyalla Airport, 137.3 nm (254.3 km) NE. Retrieved 2018/11/15 18:03 UTC (3 years ago):

TAF YWHA 151701Z 1518/1608 VRB05KT CAVOK FM152300 18012KT CAVOK FM160200 18018KT CAVOK